sensor_id;sensor_type;location;lat;lon;timestamp;pressure;altitude;pressure_sealevel;temperature;humidity
37170;BME280;23062;13.952;100.608;2024-03-23T00:55:07;1009.95;;;31.20;73.38
37170;BME280;23062;13.952;100.608;2024-03-23T00:59:44;1010.03;;;31.27;73.46
37170;BME280;23062;13.952;100.608;2024-03-23T01:04:27;1010.11;;;31.28;73.52
37170;BME280;23062;13.952;100.608;2024-03-23T01:09:10;1010.16;;;31.32;73.34
37170;BME280;23062;13.952;100.608;2024-03-23T01:13:57;1010.23;;;31.34;73.17
37170;BME280;23062;13.952;100.608;2024-03-23T01:18:41;1010.26;;;31.37;73.00
37170;BME280;23062;13.952;100.608;2024-03-23T01:23:23;1010.28;;;31.42;74.37
37170;BME280;23062;13.952;100.608;2024-03-23T01:28:00;1010.39;;;31.59;73.16
37170;BME280;23062;13.952;100.608;2024-03-23T01:32:43;1010.41;;;31.58;72.87
37170;BME280;23062;13.952;100.608;2024-03-23T01:37:26;1010.47;;;31.57;72.90
37170;BME280;23062;13.952;100.608;2024-03-23T01:42:10;1010.54;;;31.54;73.01
37170;BME280;23062;13.952;100.608;2024-03-23T01:46:55;1010.57;;;31.57;72.05
37170;BME280;23062;13.952;100.608;2024-03-23T01:51:36;1010.59;;;31.60;71.66
37170;BME280;23062;13.952;100.608;2024-03-23T01:56:13;1010.58;;;31.68;70.87
37170;BME280;23062;13.952;100.608;2024-03-23T02:00:52;1010.66;;;31.80;70.32
37170;BME280;23062;13.952;100.608;2024-03-23T02:05:29;1010.72;;;31.81;70.20
37170;BME280;23062;13.952;100.608;2024-03-23T02:10:12;1010.78;;;31.89;69.89
37170;BME280;23062;13.952;100.608;2024-03-23T02:15:01;1010.85;;;31.91;69.86
37170;BME280;23062;13.952;100.608;2024-03-23T02:19:39;1010.91;;;31.95;69.47
37170;BME280;23062;13.952;100.608;2024-03-23T02:24:25;1010.93;;;31.95;69.17
37170;BME280;23062;13.952;100.608;2024-03-23T02:29:02;1010.93;;;31.92;68.87
37170;BME280;23062;13.952;100.608;2024-03-23T02:33:41;1010.90;;;31.97;68.82
37170;BME280;23062;13.952;100.608;2024-03-23T02:38:25;1010.94;;;32.04;68.37
37170;BME280;23062;13.952;100.608;2024-03-23T02:43:11;1010.94;;;32.07;68.09
37170;BME280;23062;13.952;100.608;2024-03-23T02:47:56;1010.97;;;32.14;67.60
37170;BME280;23062;13.952;100.608;2024-03-23T02:52:40;1010.98;;;32.18;66.75
37170;BME280;23062;13.952;100.608;2024-03-23T02:57:19;1011.02;;;32.21;66.29
37170;BME280;23062;13.952;100.608;2024-03-23T03:01:56;1010.96;;;32.27;65.86
37170;BME280;23062;13.952;100.608;2024-03-23T03:06:46;1011.02;;;32.29;65.53
37170;BME280;23062;13.952;100.608;2024-03-23T03:11:21;1011.03;;;32.36;65.04
37170;BME280;23062;13.952;100.608;2024-03-23T03:15:57;1010.94;;;32.42;65.02
37170;BME280;23062;13.952;100.608;2024-03-23T03:20:40;1010.90;;;32.51;64.11
37170;BME280;23062;13.952;100.608;2024-03-23T03:25:28;1010.87;;;32.51;63.86
37170;BME280;23062;13.952;100.608;2024-03-23T03:30:10;1010.86;;;32.55;63.86
37170;BME280;23062;13.952;100.608;2024-03-23T03:34:59;1010.79;;;32.71;62.84
37170;BME280;23062;13.952;100.608;2024-03-23T03:39:45;1010.85;;;32.69;62.98
37170;BME280;23062;13.952;100.608;2024-03-23T03:44:30;1010.75;;;32.71;62.07
37170;BME280;23062;13.952;100.608;2024-03-23T03:49:12;1010.68;;;32.72;61.80
37170;BME280;23062;13.952;100.608;2024-03-23T03:53:56;1010.62;;;32.71;61.37
37170;BME280;23062;13.952;100.608;2024-03-23T03:58:33;1010.59;;;32.80;60.97
37170;BME280;23062;13.952;100.608;2024-03-23T04:03:10;1010.55;;;32.75;61.17
37170;BME280;23062;13.952;100.608;2024-03-23T04:07:55;1010.48;;;32.77;61.12
37170;BME280;23062;13.952;100.608;2024-03-23T04:12:40;1010.45;;;32.85;61.01
37170;BME280;23062;13.952;100.608;2024-03-23T04:17:23;1010.43;;;32.91;60.42
37170;BME280;23062;13.952;100.608;2024-03-23T04:22:07;1010.38;;;32.91;59.36
37170;BME280;23062;13.952;100.608;2024-03-23T04:26:54;1010.36;;;32.92;59.45
37170;BME280;23062;13.952;100.608;2024-03-23T04:31:38;1010.39;;;32.93;59.30
37170;BME280;23062;13.952;100.608;2024-03-23T04:36:23;1010.31;;;32.85;58.75
37170;BME280;23062;13.952;100.608;2024-03-23T04:41:00;1010.23;;;32.86;57.48
37170;BME280;23062;13.952;100.608;2024-03-23T04:45:46;1010.25;;;32.84;58.05
37170;BME280;23062;13.952;100.608;2024-03-23T04:50:30;1010.05;;;32.86;57.96
37170;BME280;23062;13.952;100.608;2024-03-23T04:55:09;1010.01;;;33.13;57.26
37170;BME280;23062;13.952;100.608;2024-03-23T04:59:49;1009.92;;;33.08;56.75
37170;BME280;23062;13.952;100.608;2024-03-23T05:04:33;1009.83;;;32.97;57.12
37170;BME280;23062;13.952;100.608;2024-03-23T05:09:18;1009.68;;;33.02;56.08
37170;BME280;23062;13.952;100.608;2024-03-23T05:14:06;1009.58;;;33.13;55.83
37170;BME280;23062;13.952;100.608;2024-03-23T05:18:50;1009.50;;;33.17;55.87
37170;BME280;23062;13.952;100.608;2024-03-23T05:23:33;1009.41;;;33.12;56.52
37170;BME280;23062;13.952;100.608;2024-03-23T05:28:18;1009.28;;;33.18;56.44
37170;BME280;23062;13.952;100.608;2024-03-23T05:33:00;1009.15;;;33.14;56.00
37170;BME280;23062;13.952;100.608;2024-03-23T05:37:48;1009.13;;;33.28;55.98
37170;BME280;23062;13.952;100.608;2024-03-23T05:42:30;1008.95;;;33.22;56.85
37170;BME280;23062;13.952;100.608;2024-03-23T05:47:09;1008.87;;;33.38;56.93
37170;BME280;23062;13.952;100.608;2024-03-23T05:51:47;1008.77;;;33.45;56.53
37170;BME280;23062;13.952;100.608;2024-03-23T05:56:24;1008.66;;;33.52;55.89
37170;BME280;23062;13.952;100.608;2024-03-23T06:01:11;1008.52;;;33.42;56.37
37170;BME280;23062;13.952;100.608;2024-03-23T06:05:48;1008.55;;;33.60;55.80
37170;BME280;23062;13.952;100.608;2024-03-23T06:10:31;1008.43;;;33.59;55.25
37170;BME280;23062;13.952;100.608;2024-03-23T06:15:08;1008.35;;;33.48;55.81
37170;BME280;23062;13.952;100.608;2024-03-23T06:19:49;1008.29;;;33.71;54.75
37170;BME280;23062;13.952;100.608;2024-03-23T06:24:25;1008.20;;;33.63;54.68
37170;BME280;23062;13.952;100.608;2024-03-23T06:29:04;1008.14;;;33.55;54.95
37170;BME280;23062;13.952;100.608;2024-03-23T06:33:41;1008.03;;;33.59;54.94
37170;BME280;23062;13.952;100.608;2024-03-23T06:38:32;1007.96;;;33.56;54.79
37170;BME280;23062;13.952;100.608;2024-03-23T06:43:17;1007.84;;;33.80;53.64
37170;BME280;23062;13.952;100.608;2024-03-23T06:47:55;1007.82;;;33.69;53.11
37170;BME280;23062;13.952;100.608;2024-03-23T06:52:42;1007.76;;;33.76;52.80
37170;BME280;23062;13.952;100.608;2024-03-23T06:57:27;1007.75;;;33.68;52.87
37170;BME280;23062;13.952;100.608;2024-03-23T07:02:04;1007.70;;;33.75;53.08
37170;BME280;23062;13.952;100.608;2024-03-23T07:06:45;1007.68;;;33.73;53.12
37170;BME280;23062;13.952;100.608;2024-03-23T07:11:23;1007.53;;;33.71;52.96
37170;BME280;23062;13.952;100.608;2024-03-23T07:16:00;1007.42;;;34.00;52.31
37170;BME280;23062;13.952;100.608;2024-03-23T07:20:59;1007.31;;;33.84;52.49
37170;BME280;23062;13.952;100.608;2024-03-23T07:25:41;1007.19;;;33.84;52.97
37170;BME280;23062;13.952;100.608;2024-03-23T07:30:18;1007.18;;;33.89;53.15
37170;BME280;23062;13.952;100.608;2024-03-23T07:34:54;1007.24;;;33.85;53.40
37170;BME280;23062;13.952;100.608;2024-03-23T07:39:30;1007.16;;;33.85;53.32
37170;BME280;23062;13.952;100.608;2024-03-23T07:44:14;1007.12;;;33.93;53.50
37170;BME280;23062;13.952;100.608;2024-03-23T07:48:50;1006.97;;;33.85;54.02
37170;BME280;23062;13.952;100.608;2024-03-23T07:53:30;1007.03;;;33.90;53.76
37170;BME280;23062;13.952;100.608;2024-03-23T07:58:14;1006.95;;;33.79;53.94
37170;BME280;23062;13.952;100.608;2024-03-23T08:02:53;1006.91;;;33.84;53.88
37170;BME280;23062;13.952;100.608;2024-03-23T08:07:31;1006.92;;;33.85;54.24
37170;BME280;23062;13.952;100.608;2024-03-23T08:12:09;1006.89;;;33.91;53.76
37170;BME280;23062;13.952;100.608;2024-03-23T08:16:52;1006.90;;;33.97;53.46
37170;BME280;23062;13.952;100.608;2024-03-23T08:21:32;1006.95;;;33.93;53.53
37170;BME280;23062;13.952;100.608;2024-03-23T08:26:16;1006.93;;;33.79;53.92
37170;BME280;23062;13.952;100.608;2024-03-23T08:31:01;1006.90;;;33.80;53.73
37170;BME280;23062;13.952;100.608;2024-03-23T08:35:35;1006.91;;;33.84;53.07
37170;BME280;23062;13.952;100.608;2024-03-23T08:40:12;1006.85;;;33.88;53.23
37170;BME280;23062;13.952;100.608;2024-03-23T08:44:50;1006.76;;;33.79;53.66
37170;BME280;23062;13.952;100.608;2024-03-23T08:49:26;1006.77;;;33.90;52.70
37170;BME280;23062;13.952;100.608;2024-03-23T08:54:09;1006.81;;;33.89;52.91
37170;BME280;23062;13.952;100.608;2024-03-23T08:58:53;1006.81;;;33.89;54.02
37170;BME280;23062;13.952;100.608;2024-03-23T09:03:38;1006.71;;;33.83;54.29
37170;BME280;23062;13.952;100.608;2024-03-23T09:08:22;1006.75;;;33.85;54.62
37170;BME280;23062;13.952;100.608;2024-03-23T09:13:06;1006.80;;;33.93;53.82
37170;BME280;23062;13.952;100.608;2024-03-23T09:17:47;1006.73;;;33.88;53.99
37170;BME280;23062;13.952;100.608;2024-03-23T09:22:24;1006.78;;;33.83;53.97
37170;BME280;23062;13.952;100.608;2024-03-23T09:27:03;1006.81;;;33.79;54.06
37170;BME280;23062;13.952;100.608;2024-03-23T09:31:42;1006.85;;;33.84;53.93
37170;BME280;23062;13.952;100.608;2024-03-23T09:36:25;1006.91;;;33.85;53.50
37170;BME280;23062;13.952;100.608;2024-03-23T09:41:11;1006.89;;;33.89;53.33
37170;BME280;23062;13.952;100.608;2024-03-23T09:45:50;1006.89;;;33.87;53.04
37170;BME280;23062;13.952;100.608;2024-03-23T09:50:27;1006.88;;;33.86;52.67
37170;BME280;23062;13.952;100.608;2024-03-23T09:55:05;1006.81;;;33.74;52.99
37170;BME280;23062;13.952;100.608;2024-03-23T09:59:50;1006.81;;;33.61;52.81
37170;BME280;23062;13.952;100.608;2024-03-23T10:04:41;1006.87;;;33.57;52.82
37170;BME280;23062;13.952;100.608;2024-03-23T10:09:26;1006.86;;;33.51;52.94
37170;BME280;23062;13.952;100.608;2024-03-23T10:14:10;1006.90;;;33.49;52.91
37170;BME280;23062;13.952;100.608;2024-03-23T10:18:47;1006.86;;;33.59;52.92
37170;BME280;23062;13.952;100.608;2024-03-23T10:23:30;1006.91;;;33.58;52.33
37170;BME280;23062;13.952;100.608;2024-03-23T10:28:08;1006.83;;;33.59;52.50
37170;BME280;23062;13.952;100.608;2024-03-23T10:33:06;1006.98;;;33.58;52.79
37170;BME280;23062;13.952;100.608;2024-03-23T10:37:37;1006.91;;;33.56;53.71
37170;BME280;23062;13.952;100.608;2024-03-23T10:42:14;1006.95;;;33.56;54.13
37170;BME280;23062;13.952;100.608;2024-03-23T10:46:53;1007.02;;;33.49;55.24
37170;BME280;23062;13.952;100.608;2024-03-23T10:51:39;1006.98;;;33.42;56.10
37170;BME280;23062;13.952;100.608;2024-03-23T10:56:20;1007.00;;;33.36;56.06
37170;BME280;23062;13.952;100.608;2024-03-23T11:01:00;1006.94;;;33.35;56.51
37170;BME280;23062;13.952;100.608;2024-03-23T11:05:37;1006.97;;;33.41;57.62
37170;BME280;23062;13.952;100.608;2024-03-23T11:10:30;1007.04;;;33.35;59.08
37170;BME280;23062;13.952;100.608;2024-03-23T11:15:14;1007.12;;;33.36;60.69
37170;BME280;23062;13.952;100.608;2024-03-23T11:20:08;1007.19;;;33.37;61.59
37170;BME280;23062;13.952;100.608;2024-03-23T11:24:51;1007.04;;;33.37;62.01
37170;BME280;23062;13.952;100.608;2024-03-23T11:29:27;1007.15;;;33.31;62.45
37170;BME280;23062;13.952;100.608;2024-03-23T11:34:06;1007.20;;;33.33;62.25
37170;BME280;23062;13.952;100.608;2024-03-23T11:38:51;1007.32;;;33.23;60.75
37170;BME280;23062;13.952;100.608;2024-03-23T11:43:34;1007.39;;;33.16;60.70
37170;BME280;23062;13.952;100.608;2024-03-23T11:48:20;1007.47;;;33.17;61.06
37170;BME280;23062;13.952;100.608;2024-03-23T11:53:12;1007.48;;;33.14;61.29
37170;BME280;23062;13.952;100.608;2024-03-23T11:57:56;1007.66;;;33.14;61.62
37170;BME280;23062;13.952;100.608;2024-03-23T12:02:38;1007.76;;;33.10;62.11
37170;BME280;23062;13.952;100.608;2024-03-23T12:07:17;1007.87;;;33.08;62.55
37170;BME280;23062;13.952;100.608;2024-03-23T12:11:56;1007.97;;;32.96;63.34
37170;BME280;23062;13.952;100.608;2024-03-23T12:16:41;1008.22;;;32.94;63.96
37170;BME280;23062;13.952;100.608;2024-03-23T12:21:21;1008.22;;;32.94;63.88
37170;BME280;23062;13.952;100.608;2024-03-23T12:26:08;1008.30;;;32.88;63.70
37170;BME280;23062;13.952;100.608;2024-03-23T12:30:45;1008.36;;;32.82;63.45
37170;BME280;23062;13.952;100.608;2024-03-23T12:35:28;1008.32;;;32.82;63.73
37170;BME280;23062;13.952;100.608;2024-03-23T12:40:11;1008.39;;;32.76;64.98
37170;BME280;23062;13.952;100.608;2024-03-23T12:44:48;1008.52;;;32.75;64.67
37170;BME280;23062;13.952;100.608;2024-03-23T12:49:25;1008.53;;;32.76;65.06
37170;BME280;23062;13.952;100.608;2024-03-23T12:54:04;1008.60;;;32.80;65.48
37170;BME280;23062;13.952;100.608;2024-03-23T12:58:41;1008.74;;;32.72;66.60
37170;BME280;23062;13.952;100.608;2024-03-23T13:03:26;1008.77;;;32.72;66.92
37170;BME280;23062;13.952;100.608;2024-03-23T13:08:09;1008.94;;;32.72;66.39
37170;BME280;23062;13.952;100.608;2024-03-23T13:12:46;1008.95;;;32.62;65.70
37170;BME280;23062;13.952;100.608;2024-03-23T13:17:22;1008.99;;;32.62;65.53
37170;BME280;23062;13.952;100.608;2024-03-23T13:22:02;1009.06;;;32.59;65.41
37170;BME280;23062;13.952;100.608;2024-03-23T13:26:44;1009.10;;;32.54;65.39
37170;BME280;23062;13.952;100.608;2024-03-23T13:31:22;1009.08;;;32.54;65.58
37170;BME280;23062;13.952;100.608;2024-03-23T13:36:11;1009.19;;;32.56;65.49
37170;BME280;23062;13.952;100.608;2024-03-23T13:40:57;1009.31;;;32.72;65.49
37170;BME280;23062;13.952;100.608;2024-03-23T13:45:34;1009.39;;;32.84;65.30
37170;BME280;23062;13.952;100.608;2024-03-23T13:50:19;1009.40;;;32.94;65.20
37170;BME280;23062;13.952;100.608;2024-03-23T13:54:59;1009.42;;;32.98;64.75
37170;BME280;23062;13.952;100.608;2024-03-23T13:59:36;1009.52;;;32.95;65.03
37170;BME280;23062;13.952;100.608;2024-03-23T14:04:12;1009.49;;;32.98;64.86
37170;BME280;23062;13.952;100.608;2024-03-23T14:08:52;1009.56;;;32.88;65.56
37170;BME280;23062;13.952;100.608;2024-03-23T14:13:36;1009.57;;;32.92;65.71
37170;BME280;23062;13.952;100.608;2024-03-23T14:18:20;1009.60;;;32.92;65.99
37170;BME280;23062;13.952;100.608;2024-03-23T14:23:07;1009.60;;;32.98;65.93
37170;BME280;23062;13.952;100.608;2024-03-23T14:27:46;1009.76;;;32.96;66.09
37170;BME280;23062;13.952;100.608;2024-03-23T14:32:32;1009.87;;;32.94;66.24
37170;BME280;23062;13.952;100.608;2024-03-23T14:37:20;1009.87;;;32.98;65.84
37170;BME280;23062;13.952;100.608;2024-03-23T14:42:09;1009.89;;;32.92;66.34
37170;BME280;23062;13.952;100.608;2024-03-23T14:46:53;1009.87;;;32.95;66.18
37170;BME280;23062;13.952;100.608;2024-03-23T14:51:36;1009.90;;;32.90;66.28
37170;BME280;23062;13.952;100.608;2024-03-23T14:56:14;1009.95;;;32.93;65.81
37170;BME280;23062;13.952;100.608;2024-03-23T15:01:06;1010.04;;;32.82;66.62
37170;BME280;23062;13.952;100.608;2024-03-23T15:06:00;1010.07;;;32.83;66.66
37170;BME280;23062;13.952;100.608;2024-03-23T15:10:46;1010.18;;;32.89;66.45
37170;BME280;23062;13.952;100.608;2024-03-23T15:15:31;1010.21;;;32.86;66.56
37170;BME280;23062;13.952;100.608;2024-03-23T15:20:15;1010.23;;;32.80;66.78
37170;BME280;23062;13.952;100.608;2024-03-23T15:24:53;1010.32;;;32.76;66.82
37170;BME280;23062;13.952;100.608;2024-03-23T15:29:37;1010.31;;;32.82;66.76
37170;BME280;23062;13.952;100.608;2024-03-23T15:34:23;1010.34;;;32.70;66.82
37170;BME280;23062;13.952;100.608;2024-03-23T15:39:09;1010.34;;;32.73;66.64
37170;BME280;23062;13.952;100.608;2024-03-23T15:43:53;1010.37;;;32.83;66.22
37170;BME280;23062;13.952;100.608;2024-03-23T15:48:38;1010.33;;;32.86;65.95
37170;BME280;23062;13.952;100.608;2024-03-23T15:53:23;1010.26;;;32.73;66.43
37170;BME280;23062;13.952;100.608;2024-03-23T15:58:00;1010.35;;;32.86;65.98
37170;BME280;23062;13.952;100.608;2024-03-23T16:02:43;1010.34;;;32.78;66.42
37170;BME280;23062;13.952;100.608;2024-03-23T16:07:27;1010.38;;;32.78;66.56
37170;BME280;23062;13.952;100.608;2024-03-23T16:12:12;1010.44;;;32.81;66.45
37170;BME280;23062;13.952;100.608;2024-03-23T16:16:57;1010.39;;;32.80;66.53
37170;BME280;23062;13.952;100.608;2024-03-23T16:21:41;1010.33;;;32.81;66.52
37170;BME280;23062;13.952;100.608;2024-03-23T16:26:19;1010.34;;;32.81;66.79
37170;BME280;23062;13.952;100.608;2024-03-23T16:31:04;1010.32;;;32.75;66.76
37170;BME280;23062;13.952;100.608;2024-03-23T16:36:08;1010.27;;;32.76;67.01
37170;BME280;23062;13.952;100.608;2024-03-23T16:40:26;1010.22;;;32.81;66.66
37170;BME280;23062;13.952;100.608;2024-03-23T16:45:03;1010.26;;;32.71;66.98
37170;BME280;23062;13.952;100.608;2024-03-23T16:49:50;1010.26;;;32.75;66.84
37170;BME280;23062;13.952;100.608;2024-03-23T16:54:34;1010.27;;;32.80;66.60
37170;BME280;23062;13.952;100.608;2024-03-23T16:59:19;1010.28;;;32.69;67.07
37170;BME280;23062;13.952;100.608;2024-03-23T17:03:56;1010.29;;;32.62;67.26
37170;BME280;23062;13.952;100.608;2024-03-23T17:08:35;1010.23;;;32.76;66.63
37170;BME280;23062;13.952;100.608;2024-03-23T17:13:13;1010.24;;;32.78;66.62
37170;BME280;23062;13.952;100.608;2024-03-23T17:17:59;1010.23;;;32.77;66.51
37170;BME280;23062;13.952;100.608;2024-03-23T17:22:38;1010.26;;;32.78;66.63
37170;BME280;23062;13.952;100.608;2024-03-23T17:27:22;1010.28;;;32.77;66.59
37170;BME280;23062;13.952;100.608;2024-03-23T17:32:02;1010.18;;;32.72;66.79
37170;BME280;23062;13.952;100.608;2024-03-23T17:36:49;1010.03;;;32.63;67.18
37170;BME280;23062;13.952;100.608;2024-03-23T17:41:26;1009.99;;;32.68;66.99
37170;BME280;23062;13.952;100.608;2024-03-23T17:46:03;1009.91;;;32.77;66.70
37170;BME280;23062;13.952;100.608;2024-03-23T17:50:49;1009.89;;;32.75;66.82
37170;BME280;23062;13.952;100.608;2024-03-23T17:55:34;1009.73;;;32.74;66.98
37170;BME280;23062;13.952;100.608;2024-03-23T18:00:19;1009.69;;;32.76;66.90
37170;BME280;23062;13.952;100.608;2024-03-23T18:05:04;1009.67;;;32.70;66.98
37170;BME280;23062;13.952;100.608;2024-03-23T18:09:41;1009.62;;;32.73;66.89
37170;BME280;23062;13.952;100.608;2024-03-23T18:14:20;1009.56;;;32.71;66.84
37170;BME280;23062;13.952;100.608;2024-03-23T18:19:05;1009.46;;;32.67;67.01
37170;BME280;23062;13.952;100.608;2024-03-23T18:23:51;1009.34;;;32.63;67.31
37170;BME280;23062;13.952;100.608;2024-03-23T18:28:36;1009.26;;;32.68;67.12
37170;BME280;23062;13.952;100.608;2024-03-23T18:33:25;1009.30;;;32.72;67.17
37170;BME280;23062;13.952;100.608;2024-03-23T18:38:10;1009.25;;;32.73;66.97
37170;BME280;23062;13.952;100.608;2024-03-23T18:42:53;1009.26;;;32.73;67.30
37170;BME280;23062;13.952;100.608;2024-03-23T18:47:39;1009.31;;;32.68;67.55
37170;BME280;23062;13.952;100.608;2024-03-23T18:52:17;1009.32;;;32.73;67.43
37170;BME280;23062;13.952;100.608;2024-03-23T18:56:55;1009.31;;;32.72;67.59
37170;BME280;23062;13.952;100.608;2024-03-23T19:01:40;1009.29;;;32.69;67.64
37170;BME280;23062;13.952;100.608;2024-03-23T19:06:26;1009.26;;;32.69;67.71
37170;BME280;23062;13.952;100.608;2024-03-23T19:11:11;1009.19;;;32.71;67.51
37170;BME280;23062;13.952;100.608;2024-03-23T19:15:59;1009.15;;;32.71;67.56
37170;BME280;23062;13.952;100.608;2024-03-23T19:20:34;1009.09;;;32.69;67.58
37170;BME280;23062;13.952;100.608;2024-03-23T19:25:11;1009.11;;;32.71;67.80
37170;BME280;23062;13.952;100.608;2024-03-23T19:29:55;1009.02;;;32.68;67.93
37170;BME280;23062;13.952;100.608;2024-03-23T19:34:40;1009.00;;;32.67;67.84
37170;BME280;23062;13.952;100.608;2024-03-23T19:39:26;1009.03;;;32.67;68.04
37170;BME280;23062;13.952;100.608;2024-03-23T19:44:03;1009.05;;;32.69;68.06
37170;BME280;23062;13.952;100.608;2024-03-23T19:48:48;1009.08;;;32.69;67.93
37170;BME280;23062;13.952;100.608;2024-03-23T19:53:33;1009.06;;;32.67;67.84
37170;BME280;23062;13.952;100.608;2024-03-23T19:58:16;1008.95;;;32.66;68.18
37170;BME280;23062;13.952;100.608;2024-03-23T20:03:02;1009.00;;;32.65;68.20
37170;BME280;23062;13.952;100.608;2024-03-23T20:07:40;1009.08;;;32.66;68.23
37170;BME280;23062;13.952;100.608;2024-03-23T20:12:25;1009.07;;;32.66;68.22
37170;BME280;23062;13.952;100.608;2024-03-23T20:17:06;1008.98;;;32.64;68.32
37170;BME280;23062;13.952;100.608;2024-03-23T20:21:42;1008.97;;;32.64;68.34
37170;BME280;23062;13.952;100.608;2024-03-23T20:26:27;1008.95;;;32.63;68.58
37170;BME280;23062;13.952;100.608;2024-03-23T20:31:14;1008.99;;;32.62;68.48
37170;BME280;23062;13.952;100.608;2024-03-23T20:35:52;1009.05;;;32.63;68.62
37170;BME280;23062;13.952;100.608;2024-03-23T20:40:36;1009.06;;;32.64;68.45
37170;BME280;23062;13.952;100.608;2024-03-23T20:45:20;1009.03;;;32.62;68.75
37170;BME280;23062;13.952;100.608;2024-03-23T20:50:05;1008.99;;;32.60;68.97
37170;BME280;23062;13.952;100.608;2024-03-23T20:59:31;1009.04;;;32.60;68.90
37170;BME280;23062;13.952;100.608;2024-03-23T21:04:08;1009.10;;;32.62;69.03
37170;BME280;23062;13.952;100.608;2024-03-23T21:08:53;1009.13;;;32.57;69.18
37170;BME280;23062;13.952;100.608;2024-03-23T21:13:38;1009.05;;;32.58;69.04
37170;BME280;23062;13.952;100.608;2024-03-23T21:18:23;1009.04;;;32.62;69.00
37170;BME280;23062;13.952;100.608;2024-03-23T21:23:09;1009.08;;;32.56;69.55
37170;BME280;23062;13.952;100.608;2024-03-23T21:27:59;1009.11;;;32.57;69.52
37170;BME280;23062;13.952;100.608;2024-03-23T21:32:37;1009.20;;;32.58;69.18
37170;BME280;23062;13.952;100.608;2024-03-23T21:37:22;1009.23;;;32.56;69.62
37170;BME280;23062;13.952;100.608;2024-03-23T21:42:02;1009.26;;;32.56;69.70
37170;BME280;23062;13.952;100.608;2024-03-23T21:46:50;1009.36;;;32.57;69.72
37170;BME280;23062;13.952;100.608;2024-03-23T21:51:29;1009.43;;;32.57;69.70
37170;BME280;23062;13.952;100.608;2024-03-23T21:56:16;1009.51;;;32.55;69.52
37170;BME280;23062;13.952;100.608;2024-03-23T22:00:53;1009.50;;;32.56;70.00
37170;BME280;23062;13.952;100.608;2024-03-23T22:05:38;1009.65;;;32.54;70.11
37170;BME280;23062;13.952;100.608;2024-03-23T22:10:26;1009.78;;;32.52;70.10
37170;BME280;23062;13.952;100.608;2024-03-23T22:15:11;1009.86;;;32.54;70.02
37170;BME280;23062;13.952;100.608;2024-03-23T22:19:56;1009.89;;;32.48;70.60
37170;BME280;23062;13.952;100.608;2024-03-23T22:24:33;1009.91;;;32.46;70.49
37170;BME280;23062;13.952;100.608;2024-03-23T22:29:16;1009.99;;;32.40;70.67
37170;BME280;23062;13.952;100.608;2024-03-23T22:33:58;1009.98;;;32.38;71.23
37170;BME280;23062;13.952;100.608;2024-03-23T22:38:38;1010.01;;;32.03;72.91
37170;BME280;23062;13.952;100.608;2024-03-23T22:43:22;1010.03;;;31.92;73.65
37170;BME280;23062;13.952;100.608;2024-03-23T22:48:00;1010.01;;;31.67;74.53
37170;BME280;23062;13.952;100.608;2024-03-23T22:52:36;1010.06;;;31.56;74.97
37170;BME280;23062;13.952;100.608;2024-03-23T22:57:13;1010.16;;;31.67;74.52
37170;BME280;23062;13.952;100.608;2024-03-23T23:01:58;1010.24;;;31.76;74.15
37170;BME280;23062;13.952;100.608;2024-03-23T23:06:39;1010.33;;;31.81;74.10
37170;BME280;23062;13.952;100.608;2024-03-23T23:11:22;1010.33;;;31.71;74.23
37170;BME280;23062;13.952;100.608;2024-03-23T23:16:06;1010.42;;;31.55;74.84
37170;BME280;23062;13.952;100.608;2024-03-23T23:20:52;1010.51;;;31.45;75.29
37170;BME280;23062;13.952;100.608;2024-03-23T23:25:30;1010.64;;;31.33;75.69
37170;BME280;23062;13.952;100.608;2024-03-23T23:30:08;1010.74;;;31.51;74.80
37170;BME280;23062;13.952;100.608;2024-03-23T23:34:53;1010.82;;;31.49;74.84
37170;BME280;23062;13.952;100.608;2024-03-23T23:39:35;1010.91;;;31.31;75.54
37170;BME280;23062;13.952;100.608;2024-03-23T23:44:18;1010.90;;;31.40;75.16
37170;BME280;23062;13.952;100.608;2024-03-23T23:49:03;1010.97;;;31.42;75.10
37170;BME280;23062;13.952;100.608;2024-03-23T23:53:40;1011.09;;;31.41;75.25
37170;BME280;23062;13.952;100.608;2024-03-23T23:58:19;1011.16;;;31.35;76.73
